createdAt,value
2022-08-26T00:01:29.876Z,22.10
2022-08-26T00:03:33.073Z,22.07
2022-08-26T00:05:36.382Z,22.05
2022-08-26T00:07:39.986Z,22.02
2022-08-26T00:09:47.339Z,21.97
2022-08-26T00:11:51.075Z,21.97
2022-08-26T00:13:54.129Z,21.98
2022-08-26T00:15:58.725Z,21.96
2022-08-26T00:18:02.097Z,21.94
2022-08-26T00:20:06.634Z,21.91
2022-08-26T00:22:09.660Z,21.87
2022-08-26T00:24:14.547Z,21.86
2022-08-26T00:26:17.902Z,21.84
2022-08-26T00:28:21.623Z,21.81
2022-08-26T00:30:27.102Z,21.81
2022-08-26T00:32:31.543Z,21.79
2022-08-26T00:34:36.150Z,21.79
2022-08-26T00:36:40.767Z,21.78
2022-08-26T00:38:44.101Z,21.77
2022-08-26T00:40:52.884Z,21.75
2022-08-26T00:42:56.485Z,21.73
2022-08-26T00:44:59.664Z,21.71
2022-08-26T00:47:05.499Z,21.71
2022-08-26T00:49:14.956Z,21.68
2022-08-26T00:51:21.734Z,21.64
2022-08-26T00:53:29.728Z,21.63
2022-08-26T00:55:37.827Z,21.61
2022-08-26T00:57:41.426Z,21.59
2022-08-26T00:59:46.409Z,21.56
2022-08-26T01:01:49.431Z,21.54
2022-08-26T01:03:52.412Z,21.54
2022-08-26T01:05:59.881Z,21.52
2022-08-26T01:08:03.682Z,21.49
2022-08-26T01:10:10.391Z,21.49
2022-08-26T01:12:13.868Z,21.47
2022-08-26T01:14:17.694Z,21.45
2022-08-26T01:16:24.825Z,21.44
2022-08-26T01:18:28.825Z,21.40
2022-08-26T01:20:36.489Z,21.38
2022-08-26T01:22:47.795Z,21.37
2022-08-26T01:24:51.312Z,21.38
2022-08-26T01:26:59.479Z,21.37
2022-08-26T01:29:04.584Z,21.34
2022-08-26T01:31:11.150Z,21.35
2022-08-26T01:33:20.485Z,21.32
2022-08-26T01:35:23.668Z,21.31
2022-08-26T01:37:33.349Z,21.29
2022-08-26T01:39:37.879Z,21.28
2022-08-26T01:41:44.073Z,21.27
2022-08-26T01:43:49.330Z,21.27
2022-08-26T01:45:54.555Z,21.25
2022-08-26T01:47:59.755Z,21.26
2022-08-26T01:50:07.865Z,21.23
2022-08-26T01:52:13.243Z,21.22
2022-08-26T01:54:16.268Z,21.20
2022-08-26T01:56:33.180Z,21.19
2022-08-26T01:58:42.164Z,21.17
2022-08-26T02:00:46.632Z,21.16
2022-08-26T02:02:51.612Z,21.15
2022-08-26T02:04:59.572Z,21.14
2022-08-26T02:07:05.207Z,21.13
2022-08-26T02:09:08.848Z,21.10
2022-08-26T02:11:12.112Z,21.07
2022-08-26T02:13:16.460Z,21.05
2022-08-26T02:15:19.498Z,21.04
2022-08-26T02:17:26.951Z,21.03
2022-08-26T02:19:32.625Z,20.99
2022-08-26T02:21:35.863Z,20.95
2022-08-26T02:23:40.205Z,20.92
2022-08-26T02:25:49.264Z,20.89
2022-08-26T02:27:52.544Z,20.86
2022-08-26T02:29:59.138Z,20.83
2022-08-26T02:32:02.332Z,20.81
2022-08-26T02:34:10.835Z,20.82
2022-08-26T02:36:13.956Z,20.81
2022-08-26T02:38:18.542Z,20.82
2022-08-26T02:40:25.182Z,20.78
2022-08-26T02:42:28.396Z,20.70
2022-08-26T02:44:31.443Z,20.62
2022-08-26T02:46:39.146Z,20.57
2022-08-26T02:48:42.872Z,20.53
2022-08-26T02:50:45.928Z,20.50
2022-08-26T02:52:49.268Z,20.50
2022-08-26T02:54:53.312Z,20.46
2022-08-26T02:56:56.556Z,20.45
2022-08-26T02:59:00.364Z,20.41
2022-08-26T03:01:04.865Z,20.35
2022-08-26T03:03:10.031Z,20.32
2022-08-26T03:05:13.477Z,20.32
2022-08-26T03:07:16.401Z,20.31
2022-08-26T03:09:19.813Z,20.31
2022-08-26T03:11:23.574Z,20.29
2022-08-26T03:13:27.597Z,20.29
2022-08-26T03:15:30.569Z,20.29
2022-08-26T03:17:33.882Z,20.29
2022-08-26T03:19:40.301Z,20.27
2022-08-26T03:21:44.327Z,20.27
2022-08-26T03:23:50.494Z,20.28
2022-08-26T03:25:54.220Z,20.31
2022-08-26T03:27:57.147Z,20.31
2022-08-26T03:30:20.406Z,20.30
2022-08-26T03:32:23.446Z,20.31
2022-08-26T03:34:29.929Z,20.27
2022-08-26T03:36:35.074Z,20.21
2022-08-26T03:38:38.129Z,20.14
2022-08-26T03:40:43.425Z,20.11
2022-08-26T03:42:46.803Z,20.05
2022-08-26T03:44:50.016Z,20.04
2022-08-26T03:46:53.672Z,20.02
2022-08-26T03:48:57.195Z,20.01
2022-08-26T03:51:00.183Z,19.98
2022-08-26T03:53:12.678Z,19.95
2022-08-26T03:55:17.724Z,19.92
2022-08-26T03:57:20.743Z,19.91
2022-08-26T03:59:25.192Z,19.93
2022-08-26T04:01:29.234Z,19.93
2022-08-26T04:03:51.450Z,19.95
2022-08-26T04:05:54.377Z,19.99
2022-08-26T04:07:57.334Z,19.99
2022-08-26T04:10:02.865Z,19.97
2022-08-26T04:12:06.277Z,19.98
2022-08-26T04:14:10.772Z,19.96
2022-08-26T04:16:13.928Z,19.96
2022-08-26T04:18:17.283Z,19.95
2022-08-26T04:20:20.923Z,19.94
2022-08-26T04:22:24.886Z,19.92
2022-08-26T04:24:28.756Z,19.94
2022-08-26T04:26:37.039Z,19.92
2022-08-26T04:28:42.551Z,19.92
2022-08-26T04:30:45.625Z,19.91
2022-08-26T04:32:48.736Z,19.92
2022-08-26T04:34:51.772Z,19.92
2022-08-26T04:36:55.973Z,19.95
2022-08-26T04:39:01.764Z,19.97
2022-08-26T04:41:05.956Z,19.96
2022-08-26T04:43:20.072Z,19.97
2022-08-26T04:45:23.268Z,19.96
2022-08-26T04:47:29.200Z,19.99
2022-08-26T04:49:35.756Z,20.00
2022-08-26T04:51:39.053Z,20.01
2022-08-26T04:53:42.012Z,20.04
2022-08-26T04:55:45.183Z,20.07
2022-08-26T04:57:51.276Z,20.12
2022-08-26T04:59:55.638Z,20.17
2022-08-26T05:01:59.471Z,20.21
2022-08-26T05:04:03.507Z,20.26
2022-08-26T05:06:12.262Z,20.27
2022-08-26T05:08:15.888Z,20.31
2022-08-26T05:10:20.051Z,20.35
2022-08-26T05:12:23.282Z,20.37
2022-08-26T05:14:26.594Z,20.42
2022-08-26T05:16:31.260Z,20.53
2022-08-26T05:18:35.821Z,20.67
2022-08-26T05:20:40.676Z,20.82
2022-08-26T05:22:43.956Z,20.96
2022-08-26T05:24:47.382Z,21.09
2022-08-26T05:26:50.365Z,21.20
2022-08-26T05:28:55.277Z,21.27
2022-08-26T05:30:58.383Z,21.35
2022-08-26T05:33:03.552Z,21.46
2022-08-26T05:35:08.716Z,21.61
2022-08-26T05:37:13.645Z,21.78
2022-08-26T05:39:17.370Z,21.91
2022-08-26T05:41:24.743Z,22.07
2022-08-26T05:43:27.757Z,22.27
2022-08-26T05:45:32.156Z,22.47
2022-08-26T05:47:35.205Z,22.67
2022-08-26T05:49:51.291Z,22.84
2022-08-26T05:51:54.875Z,23.05
2022-08-26T05:53:57.812Z,23.18
2022-08-26T05:56:01.281Z,23.30
2022-08-26T05:58:04.274Z,23.46
2022-08-26T06:00:09.681Z,23.63
2022-08-26T06:02:15.252Z,23.81
2022-08-26T06:04:18.259Z,23.84
2022-08-26T06:06:27.307Z,23.82
2022-08-26T06:08:32.082Z,23.92
2022-08-26T06:10:35.157Z,24.08
2022-08-26T06:12:38.438Z,24.28
2022-08-26T06:14:41.494Z,24.38
2022-08-26T06:16:45.124Z,24.39
2022-08-26T06:18:49.027Z,24.34
2022-08-26T06:20:57.745Z,24.27
2022-08-26T06:23:19.988Z,24.23
2022-08-26T06:25:39.670Z,24.17
2022-08-26T06:27:42.700Z,24.15
2022-08-26T06:29:47.096Z,24.15
2022-08-26T06:31:50.238Z,24.16
2022-08-26T06:33:55.109Z,24.16
2022-08-26T06:35:58.809Z,24.15
2022-08-26T06:38:03.320Z,24.17
2022-08-26T06:40:07.516Z,24.20
2022-08-26T06:42:11.763Z,24.25
2022-08-26T06:44:16.025Z,24.36
2022-08-26T06:46:21.516Z,24.45
2022-08-26T06:48:24.825Z,24.57
2022-08-26T06:50:29.868Z,24.67
2022-08-26T06:52:32.994Z,24.84
2022-08-26T06:54:43.016Z,24.95
2022-08-26T06:56:46.009Z,25.09
2022-08-26T06:58:51.737Z,25.24
2022-08-26T07:00:54.798Z,25.36
2022-08-26T07:02:57.860Z,25.44
2022-08-26T07:05:00.909Z,25.62
2022-08-26T07:07:03.903Z,25.82
2022-08-26T07:09:09.957Z,26.01
2022-08-26T07:11:14.756Z,26.20
2022-08-26T07:13:18.198Z,26.46
2022-08-26T07:15:35.733Z,26.68
2022-08-26T07:17:38.989Z,26.90
2022-08-26T07:19:43.477Z,27.15
2022-08-26T07:21:46.469Z,27.39
2022-08-26T07:23:54.623Z,27.58
2022-08-26T07:26:01.136Z,27.78
2022-08-26T07:28:05.642Z,27.95
2022-08-26T07:30:11.355Z,28.18
2022-08-26T07:32:20.681Z,28.43
2022-08-26T07:34:26.230Z,28.63
2022-08-26T07:36:30.224Z,28.77
2022-08-26T07:38:33.993Z,28.95
2022-08-26T07:40:37.408Z,29.05
2022-08-26T07:42:40.777Z,29.21
2022-08-26T07:44:46.176Z,29.38
2022-08-26T07:46:52.393Z,29.62
2022-08-26T07:48:56.560Z,29.77
2022-08-26T07:50:59.899Z,29.96
2022-08-26T07:53:03.444Z,30.15
2022-08-26T07:55:09.530Z,30.27
2022-08-26T07:57:12.605Z,30.40
2022-08-26T07:59:16.704Z,30.53
2022-08-26T08:01:21.434Z,30.63
2022-08-26T08:03:24.596Z,30.70
2022-08-26T08:05:33.490Z,30.83
2022-08-26T08:07:45.062Z,30.90
2022-08-26T08:09:50.025Z,30.91
2022-08-26T08:11:53.852Z,30.92
2022-08-26T08:13:57.124Z,31.05
2022-08-26T08:16:00.570Z,31.22
2022-08-26T08:18:06.479Z,31.30
2022-08-26T08:20:19.056Z,31.41
2022-08-26T08:22:23.664Z,31.50
2022-08-26T08:24:27.420Z,31.62
2022-08-26T08:26:30.473Z,31.64
2022-08-26T08:28:34.212Z,31.75
2022-08-26T08:30:39.648Z,31.79
2022-08-26T08:32:44.389Z,31.91
2022-08-26T08:34:49.160Z,32.04
2022-08-26T08:36:53.498Z,32.21
2022-08-26T08:38:56.778Z,32.33
2022-08-26T08:41:01.579Z,32.37
2022-08-26T08:43:11.217Z,32.47
2022-08-26T08:45:16.977Z,32.57
2022-08-26T08:47:31.731Z,32.58
2022-08-26T08:49:35.721Z,32.56
2022-08-26T08:51:45.764Z,32.60
2022-08-26T08:53:51.182Z,32.72
2022-08-26T08:56:08.546Z,32.70
2022-08-26T08:58:16.251Z,32.68
2022-08-26T09:00:30.510Z,32.60
2022-08-26T09:02:37.131Z,32.56
2022-08-26T09:05:02.878Z,32.77
2022-08-26T09:07:10.467Z,32.55
2022-08-26T09:09:20.466Z,32.03
2022-08-26T09:11:23.647Z,31.67
2022-08-26T09:13:27.515Z,31.63
2022-08-26T09:15:37.865Z,31.48
2022-08-26T09:17:47.942Z,31.33
2022-08-26T09:19:54.259Z,31.20
2022-08-26T09:21:57.608Z,31.07
2022-08-26T09:24:02.107Z,31.01
2022-08-26T09:26:17.241Z,30.93
2022-08-26T09:28:22.187Z,30.89
2022-08-26T09:30:27.504Z,30.82
2022-08-26T09:32:32.061Z,30.76
2022-08-26T09:34:36.159Z,30.73
2022-08-26T09:36:41.332Z,30.70
2022-08-26T09:38:44.873Z,30.65
2022-08-26T09:40:59.614Z,30.63
2022-08-26T09:43:22.506Z,30.63
2022-08-26T09:45:29.919Z,30.63
2022-08-26T09:47:35.468Z,30.60
2022-08-26T09:49:39.564Z,30.61
2022-08-26T09:51:44.260Z,30.74
2022-08-26T09:53:55.202Z,31.16
2022-08-26T09:56:17.291Z,31.58
2022-08-26T09:58:33.881Z,31.67
2022-08-26T10:00:40.165Z,31.51
2022-08-26T10:02:47.765Z,31.32
2022-08-26T10:04:54.018Z,31.18
2022-08-26T10:06:59.626Z,31.08
2022-08-26T10:09:08.960Z,31.01
2022-08-26T10:11:19.470Z,30.92
2022-08-26T10:13:29.519Z,30.60
2022-08-26T10:15:41.050Z,30.15
2022-08-26T10:17:56.802Z,29.94
2022-08-26T10:20:03.658Z,29.70
2022-08-26T10:22:14.651Z,29.54
2022-08-26T10:24:22.767Z,29.45
2022-08-26T10:26:32.439Z,29.31
2022-08-26T10:28:41.777Z,29.30
2022-08-26T10:30:51.479Z,29.04
2022-08-26T10:32:58.020Z,28.91
2022-08-26T10:35:01.056Z,28.92
2022-08-26T10:37:16.213Z,28.87
2022-08-26T10:39:23.894Z,28.84
2022-08-26T10:41:33.116Z,28.74
2022-08-26T10:43:40.932Z,28.71
2022-08-26T10:45:48.842Z,28.73
2022-08-26T10:47:58.349Z,28.81
2022-08-26T10:50:03.373Z,28.88
2022-08-26T10:52:16.438Z,28.94
2022-08-26T10:54:25.285Z,28.99
2022-08-26T10:56:41.400Z,29.02
2022-08-26T10:58:55.068Z,29.04
2022-08-26T11:01:22.836Z,29.10
2022-08-26T11:03:32.957Z,29.03
2022-08-26T11:05:35.963Z,28.97
2022-08-26T11:07:41.785Z,28.93
2022-08-26T11:09:47.197Z,28.95
2022-08-26T11:11:52.033Z,28.99
2022-08-26T11:14:05.016Z,29.13
2022-08-26T11:16:11.049Z,29.33
2022-08-26T11:18:55.803Z,29.51
2022-08-26T11:21:00.153Z,29.63
2022-08-26T11:23:38.696Z,29.79
2022-08-26T11:26:35.373Z,29.82
2022-08-26T11:28:39.872Z,29.82
2022-08-26T11:30:57.017Z,29.87
2022-08-26T11:33:01.235Z,29.97
2022-08-26T11:35:06.029Z,30.00
2022-08-26T11:37:15.245Z,29.88
2022-08-26T11:39:21.804Z,29.99
2022-08-26T11:41:29.225Z,30.15
2022-08-26T11:43:33.377Z,30.37
2022-08-26T11:45:38.394Z,30.53
2022-08-26T11:47:42.050Z,30.69
2022-08-26T11:49:46.399Z,30.91
2022-08-26T11:51:49.908Z,31.09
2022-08-26T11:54:09.903Z,31.20
2022-08-26T11:56:18.660Z,31.14
2022-08-26T11:58:25.754Z,31.25
2022-08-26T12:00:33.324Z,31.35
2022-08-26T12:02:37.103Z,31.26
2022-08-26T12:04:42.316Z,31.32
2022-08-26T12:06:48.034Z,31.51
2022-08-26T12:08:51.284Z,31.57
2022-08-26T12:11:05.228Z,31.49
2022-08-26T12:13:21.094Z,31.50
2022-08-26T12:15:24.422Z,31.49
2022-08-26T12:17:28.697Z,31.42
2022-08-26T12:19:33.732Z,31.17
2022-08-26T12:21:37.316Z,31.19
2022-08-26T12:23:46.823Z,31.12
2022-08-26T12:25:51.478Z,30.81
2022-08-26T12:28:04.810Z,30.50
2022-08-26T12:30:12.243Z,30.47
2022-08-26T12:32:19.356Z,30.48
2022-08-26T12:34:22.861Z,30.27
2022-08-26T12:36:31.301Z,30.36
2022-08-26T12:38:36.840Z,30.40
2022-08-26T12:40:43.183Z,30.41
2022-08-26T12:42:46.747Z,30.41
2022-08-26T12:44:59.345Z,30.48
2022-08-26T12:47:04.677Z,30.51
2022-08-26T12:49:07.684Z,30.56
2022-08-26T12:51:21.298Z,30.60
2022-08-26T12:53:26.383Z,30.70
2022-08-26T12:55:37.977Z,30.76
2022-08-26T12:57:40.940Z,30.82
2022-08-26T12:59:44.125Z,30.87
2022-08-26T13:01:49.517Z,30.84
2022-08-26T13:03:52.698Z,30.83
2022-08-26T13:06:09.545Z,30.90
2022-08-26T13:08:26.911Z,30.91
2022-08-26T13:10:35.525Z,30.90
2022-08-26T13:12:38.526Z,30.91
2022-08-26T13:14:41.524Z,30.91
2022-08-26T13:16:45.960Z,30.85
2022-08-26T13:18:51.555Z,30.75
2022-08-26T13:20:54.634Z,30.62
2022-08-26T13:22:59.060Z,30.55
2022-08-26T13:25:02.444Z,30.47
2022-08-26T13:27:07.208Z,30.44
2022-08-26T13:29:11.230Z,30.43
2022-08-26T13:31:15.109Z,30.30
2022-08-26T13:33:21.383Z,30.19
2022-08-26T13:35:25.780Z,30.15
2022-08-26T13:37:34.259Z,30.21
2022-08-26T13:39:39.400Z,30.21
2022-08-26T13:41:43.298Z,30.21
2022-08-26T13:43:46.293Z,30.20
2022-08-26T13:45:49.443Z,30.21
2022-08-26T13:47:52.500Z,30.18
2022-08-26T13:49:55.903Z,30.14
2022-08-26T13:52:00.304Z,30.11
2022-08-26T13:54:03.335Z,30.10
2022-08-26T13:56:10.485Z,30.04
2022-08-26T13:58:14.578Z,30.02
2022-08-26T14:00:18.613Z,29.97
2022-08-26T14:02:22.429Z,29.94
2022-08-26T14:04:26.974Z,29.94
2022-08-26T14:06:30.588Z,29.95
2022-08-26T14:08:35.131Z,29.95
2022-08-26T14:10:38.338Z,29.97
2022-08-26T14:12:41.374Z,30.00
2022-08-26T14:14:44.361Z,29.99
2022-08-26T14:16:58.895Z,29.97
2022-08-26T14:19:03.687Z,29.99
2022-08-26T14:21:07.677Z,30.01
2022-08-26T14:23:13.907Z,29.97
2022-08-26T14:25:25.600Z,29.94
2022-08-26T14:27:29.299Z,29.91
2022-08-26T14:29:32.307Z,29.88
2022-08-26T14:31:35.727Z,29.87
2022-08-26T14:33:39.130Z,29.90
2022-08-26T14:35:48.012Z,29.91
2022-08-26T14:37:53.530Z,29.95
2022-08-26T14:39:56.808Z,29.98
2022-08-26T14:42:01.303Z,30.01
2022-08-26T14:44:07.639Z,30.04
2022-08-26T14:46:10.697Z,30.04
2022-08-26T14:48:14.097Z,30.06
2022-08-26T14:50:20.864Z,30.08
2022-08-26T14:52:23.951Z,30.11
2022-08-26T14:54:26.370Z,30.12
2022-08-26T14:56:31.402Z,30.14
2022-08-26T14:58:35.794Z,30.18
2022-08-26T15:00:39.220Z,30.19
2022-08-26T15:02:42.323Z,30.24
2022-08-26T15:04:45.540Z,30.26
2022-08-26T15:06:48.930Z,30.31
2022-08-26T15:08:51.963Z,30.37
2022-08-26T15:10:54.992Z,30.39
2022-08-26T15:12:58.012Z,30.42
2022-08-26T15:15:04.481Z,30.45
2022-08-26T15:17:07.498Z,30.45
2022-08-26T15:19:10.727Z,30.45
2022-08-26T15:21:13.800Z,30.43
2022-08-26T15:23:17.602Z,30.37
2022-08-26T15:25:20.929Z,30.32
2022-08-26T15:27:23.972Z,30.28
2022-08-26T15:29:27.100Z,30.25
2022-08-26T15:31:32.934Z,30.21
2022-08-26T15:33:36.729Z,30.19
2022-08-26T15:35:40.404Z,30.18
2022-08-26T15:37:46.068Z,30.15
2022-08-26T15:39:49.261Z,30.11
2022-08-26T15:41:52.330Z,30.08
2022-08-26T15:43:55.303Z,30.03
2022-08-26T15:45:58.570Z,29.98
2022-08-26T15:48:03.431Z,29.95
2022-08-26T15:50:07.645Z,29.89
2022-08-26T15:52:10.655Z,29.83
2022-08-26T15:54:13.934Z,29.77
2022-08-26T15:56:17.176Z,29.73
2022-08-26T15:58:21.219Z,29.68
2022-08-26T16:00:24.234Z,29.66
2022-08-26T16:02:31.744Z,29.62
2022-08-26T16:04:36.668Z,29.58
2022-08-26T16:06:40.582Z,29.55
2022-08-26T16:08:46.207Z,29.50
2022-08-26T16:10:50.804Z,29.46
2022-08-26T16:12:53.866Z,29.41
2022-08-26T16:14:57.356Z,29.35
2022-08-26T16:17:00.373Z,29.29
2022-08-26T16:19:07.393Z,29.22
2022-08-26T16:21:16.006Z,29.17
2022-08-26T16:23:19.918Z,29.11
2022-08-26T16:25:23.396Z,29.05
2022-08-26T16:27:26.556Z,28.95
2022-08-26T16:29:31.823Z,28.84
2022-08-26T16:31:37.182Z,28.68
2022-08-26T16:33:40.624Z,28.60
2022-08-26T16:35:43.987Z,28.54
2022-08-26T16:37:48.360Z,28.46
2022-08-26T16:39:51.432Z,28.28
2022-08-26T16:41:54.468Z,28.16
2022-08-26T16:43:57.725Z,27.96
2022-08-26T16:46:00.879Z,27.65
2022-08-26T16:48:05.129Z,27.32
2022-08-26T16:50:09.504Z,26.94
2022-08-26T16:52:12.910Z,26.61
2022-08-26T16:54:18.575Z,26.33
2022-08-26T16:56:33.498Z,26.04
2022-08-26T16:58:37.302Z,25.84
2022-08-26T17:00:40.290Z,25.73
2022-08-26T17:02:43.439Z,25.54
2022-08-26T17:04:47.215Z,25.40
2022-08-26T17:06:53.545Z,25.23
2022-08-26T17:08:56.531Z,25.08
2022-08-26T17:11:01.457Z,24.98
2022-08-26T17:13:04.646Z,24.84
2022-08-26T17:15:09.447Z,24.67
2022-08-26T17:17:12.464Z,24.56
2022-08-26T17:19:15.498Z,24.45
2022-08-26T17:21:18.499Z,24.38
2022-08-26T17:23:22.104Z,24.35
2022-08-26T17:25:27.372Z,24.28
2022-08-26T17:27:31.752Z,24.23
2022-08-26T17:29:35.060Z,24.24
2022-08-26T17:31:38.228Z,24.22
2022-08-26T17:33:41.551Z,24.20
2022-08-26T17:35:44.616Z,24.18
2022-08-26T17:37:47.778Z,24.17
2022-08-26T17:39:50.844Z,24.17
2022-08-26T17:41:53.890Z,24.16
2022-08-26T17:43:58.283Z,24.15
2022-08-26T17:46:07.266Z,24.12
2022-08-26T17:48:11.683Z,24.07
2022-08-26T17:50:16.995Z,23.99
2022-08-26T17:52:20.101Z,23.93
2022-08-26T17:54:23.050Z,23.91
2022-08-26T17:56:27.996Z,23.82
2022-08-26T17:58:30.956Z,23.81
2022-08-26T18:00:39.107Z,23.74
2022-08-26T18:02:42.208Z,23.70
2022-08-26T18:04:45.457Z,23.66
2022-08-26T18:06:48.441Z,23.67
2022-08-26T18:08:51.612Z,23.67
2022-08-26T18:10:56.632Z,23.67
2022-08-26T18:12:59.716Z,23.67
2022-08-26T18:15:03.258Z,23.66
2022-08-26T18:17:07.947Z,23.64
2022-08-26T18:19:11.751Z,23.65
2022-08-26T18:21:17.663Z,23.65
2022-08-26T18:23:20.706Z,23.65
2022-08-26T18:25:23.830Z,23.63
2022-08-26T18:27:26.890Z,23.60
2022-08-26T18:29:30.000Z,23.54
2022-08-26T18:31:33.743Z,23.52
2022-08-26T18:33:38.903Z,23.53
2022-08-26T18:35:42.792Z,23.53
2022-08-26T18:37:46.005Z,23.48
2022-08-26T18:39:49.018Z,23.45
2022-08-26T18:41:53.240Z,23.49
2022-08-26T18:43:57.411Z,23.49
2022-08-26T18:46:04.909Z,23.48
2022-08-26T18:48:08.090Z,23.47
2022-08-26T18:50:12.756Z,23.45
2022-08-26T18:52:16.294Z,23.42
2022-08-26T18:56:23.803Z,23.38
2022-08-26T18:58:27.383Z,23.38
2022-08-26T19:00:31.647Z,23.39
2022-08-26T19:02:35.280Z,23.41
2022-08-26T19:04:39.280Z,23.40
2022-08-26T19:06:44.430Z,23.40
2022-08-26T19:08:49.860Z,23.38
2022-08-26T19:10:53.112Z,23.37
2022-08-26T19:13:00.589Z,23.37
2022-08-26T19:15:06.326Z,23.33
2022-08-26T19:17:09.802Z,23.30
2022-08-26T19:19:13.456Z,23.28
2022-08-26T19:21:16.498Z,23.22
2022-08-26T19:23:31.484Z,23.20
2022-08-26T19:25:41.956Z,23.19
2022-08-26T19:27:44.960Z,23.12
2022-08-26T19:29:48.048Z,23.11
2022-08-26T19:31:51.074Z,23.07
2022-08-26T19:33:54.200Z,23.05
2022-08-26T19:35:57.222Z,23.09
2022-08-26T19:38:00.449Z,23.10
2022-08-26T19:40:06.434Z,23.07
2022-08-26T19:42:09.500Z,23.04
2022-08-26T19:44:34.584Z,23.01
2022-08-26T19:48:46.819Z,22.99
2022-08-26T19:50:49.842Z,22.98
2022-08-26T19:52:52.847Z,22.99
2022-08-26T19:54:55.858Z,23.01
2022-08-26T19:57:00.447Z,23.01
2022-08-26T19:59:03.696Z,23.02
2022-08-26T20:01:07.568Z,22.99
2022-08-26T20:03:14.832Z,22.97
2022-08-26T20:05:20.911Z,22.92
2022-08-26T20:07:24.430Z,22.90
2022-08-26T20:09:27.466Z,22.88
2022-08-26T20:11:31.106Z,22.86
2022-08-26T20:13:35.826Z,22.84
2022-08-26T20:15:38.878Z,22.83
2022-08-26T20:17:42.400Z,22.81
2022-08-26T20:20:03.154Z,22.79
2022-08-26T20:22:06.331Z,22.76
2022-08-26T20:24:12.340Z,22.75
2022-08-26T20:26:15.350Z,22.73
2022-08-26T20:28:21.339Z,22.71
2022-08-26T20:30:25.909Z,22.72
2022-08-26T20:32:32.637Z,22.70
2022-08-26T20:34:39.617Z,22.69
2022-08-26T20:36:43.284Z,22.66
2022-08-26T20:38:46.354Z,22.63
2022-08-26T20:40:49.548Z,22.63
2022-08-26T20:42:52.583Z,22.59
2022-08-26T20:44:55.650Z,22.56
2022-08-26T20:47:00.152Z,22.54
2022-08-26T20:49:03.695Z,22.51
2022-08-26T20:51:08.991Z,22.48
2022-08-26T20:53:12.026Z,22.44
2022-08-26T20:55:15.073Z,22.39
2022-08-26T20:57:18.352Z,22.35
2022-08-26T20:59:22.325Z,22.36
2022-08-26T21:01:28.070Z,22.35
2022-08-26T21:03:33.038Z,22.35
2022-08-26T21:05:36.830Z,22.36
2022-08-26T21:07:40.103Z,22.35
2022-08-26T21:09:43.560Z,22.35
2022-08-26T21:11:46.686Z,22.35
2022-08-26T21:14:04.325Z,22.34
2022-08-26T21:16:08.187Z,22.33
2022-08-26T21:18:11.411Z,22.32
2022-08-26T21:20:16.134Z,22.28
2022-08-26T21:22:19.201Z,22.24
2022-08-26T21:24:22.548Z,22.25
2022-08-26T21:26:25.712Z,22.21
2022-08-26T21:28:28.725Z,22.18
2022-08-26T21:30:31.845Z,22.17
2022-08-26T21:32:34.888Z,22.17
2022-08-26T21:34:37.907Z,22.15
2022-08-26T21:36:44.194Z,22.12
2022-08-26T21:38:47.201Z,22.12
2022-08-26T21:40:58.611Z,22.11
2022-08-26T21:43:01.609Z,22.07
2022-08-26T21:45:06.047Z,22.06
2022-08-26T21:47:09.108Z,22.03
2022-08-26T21:49:15.609Z,22.01
2022-08-26T21:51:20.610Z,22.01
2022-08-26T21:53:25.013Z,22.01
2022-08-26T21:55:28.076Z,22.01
2022-08-26T21:57:31.132Z,22.00
2022-08-26T21:59:34.430Z,21.97
2022-08-26T22:01:37.899Z,21.92
2022-08-26T22:03:47.657Z,21.87
2022-08-26T22:05:51.217Z,21.83
2022-08-26T22:07:54.351Z,21.81
2022-08-26T22:09:58.959Z,21.80
2022-08-26T22:12:02.077Z,21.79
2022-08-26T22:14:05.473Z,21.80
2022-08-26T22:16:09.509Z,21.81
2022-08-26T22:18:14.456Z,21.83
2022-08-26T22:20:18.142Z,21.83
2022-08-26T22:22:21.251Z,21.80
2022-08-26T22:24:25.930Z,21.80
2022-08-26T22:26:32.552Z,21.80
2022-08-26T22:28:36.100Z,21.80
2022-08-26T22:30:39.750Z,21.76
2022-08-26T22:32:43.868Z,21.73
2022-08-26T22:34:48.534Z,21.69
2022-08-26T22:36:51.717Z,21.69
2022-08-26T22:38:55.417Z,21.68
2022-08-26T22:41:00.221Z,21.66
2022-08-26T22:43:05.659Z,21.66
2022-08-26T22:45:10.627Z,21.65
2022-08-26T22:47:13.677Z,21.65
2022-08-26T22:49:17.305Z,21.66
2022-08-26T22:51:20.673Z,21.70
2022-08-26T22:53:23.983Z,21.69
2022-08-26T22:55:26.943Z,21.66
2022-08-26T22:57:29.974Z,21.66
2022-08-26T22:59:34.414Z,21.66
2022-08-26T23:01:37.925Z,21.64
2022-08-26T23:03:41.260Z,21.65
2022-08-26T23:05:45.384Z,21.63
2022-08-26T23:07:48.908Z,21.62
2022-08-26T23:09:51.940Z,21.61
2022-08-26T23:11:55.918Z,21.58
2022-08-26T23:13:58.942Z,21.59
2022-08-26T23:16:10.091Z,21.61
2022-08-26T23:18:14.200Z,21.60
2022-08-26T23:20:19.399Z,21.60
2022-08-26T23:22:22.412Z,21.60
2022-08-26T23:24:25.400Z,21.62
2022-08-26T23:26:28.417Z,21.62
2022-08-26T23:28:31.820Z,21.63
2022-08-26T23:30:35.418Z,21.64
2022-08-26T23:32:40.113Z,21.66
2022-08-26T23:34:58.655Z,21.69
2022-08-26T23:37:02.153Z,21.70
2022-08-26T23:39:09.165Z,21.70
2022-08-26T23:41:12.130Z,21.69
2022-08-26T23:43:16.365Z,21.69
2022-08-26T23:45:19.944Z,21.70
2022-08-26T23:47:23.039Z,21.71
2022-08-26T23:49:27.556Z,21.72
2022-08-26T23:51:48.277Z,21.72
2022-08-26T23:53:51.573Z,21.71
2022-08-26T23:55:54.661Z,21.66
2022-08-26T23:57:57.591Z,21.64
